Time;durP1;ratioP1;P1;durP2;ratioP2;P2;SDS_P1;SDS_P2;PMS_P1;PMS_P2;Temp;Humidity;BMP_temperature;BMP_pressure;BME280_temperature;BME280_humidity;BME280_pressure;Samples;Min_cycle;Max_cycle;Signal;HPM_P1;HPM_P2
2022/09/23 00:01:13;;;;;;;9.50;5.50;;;;;;;5.80;83.94;100949.05;86000;1290;88592;-56
2022/09/23 00:03:21;;;;;;;7.10;5.30;;;;;;;5.79;83.87;100945.31;85998;1298;95112;-57
2022/09/23 00:05:31;;;;;;;7.90;5.20;;;;;;;5.77;84.02;100941.73;85998;1291;82789;-58
2022/09/23 00:07:40;;;;;;;9.40;5.50;;;;;;;5.75;83.91;100942.27;86006;1282;82380;-58
2022/09/23 00:09:50;;;;;;;8.90;5.50;;;;;;;5.75;83.93;100943.83;86001;1298;99277;-58
2022/09/23 00:11:59;;;;;;;6.50;4.80;;;;;;;5.74;84.08;100942.67;86025;1279;88763;-58
2022/09/23 00:14:08;;;;;;;8.70;5.60;;;;;;;5.71;83.93;100940.16;86029;1291;93369;-58
2022/09/23 00:16:21;;;;;;;6.20;4.90;;;;;;;5.67;83.96;100940.86;85998;1291;82016;-58
2022/09/23 00:18:30;;;;;;;7.20;5.10;;;;;;;5.69;84.06;100940.54;86034;1298;82782;-56
2022/09/23 00:20:47;;;;;;;9.20;5.70;;;;;;;5.67;84.11;100939.30;85996;1296;98759;-57
2022/09/23 00:22:57;;;;;;;8.60;5.20;;;;;;;5.63;84.04;100940.75;85898;1294;86694;-57
2022/09/23 00:25:10;;;;;;;7.40;4.90;;;;;;;5.59;84.12;100939.13;86025;1282;95522;-58
2022/09/23 00:27:20;;;;;;;6.80;4.70;;;;;;;5.54;83.93;100939.82;85997;1282;80234;-58
2022/09/23 00:29:32;;;;;;;7.60;5.30;;;;;;;5.53;84.21;100933.69;86044;1298;80536;-58
2022/09/23 00:31:41;;;;;;;8.30;5.00;;;;;;;5.53;84.09;100939.39;86000;1294;97143;-58
2022/09/23 00:33:55;;;;;;;9.60;5.50;;;;;;;5.53;84.35;100939.05;86056;1291;86072;-56
2022/09/23 00:36:14;;;;;;;8.10;5.50;;;;;;;5.55;84.37;100939.55;85914;1285;95208;-56
2022/09/23 00:38:25;;;;;;;8.60;5.40;;;;;;;5.58;84.27;100941.02;86042;1282;82579;-58
2022/09/23 00:40:35;;;;;;;7.00;4.70;;;;;;;5.58;84.21;100941.59;86052;1282;80513;-58
2022/09/23 00:42:51;;;;;;;8.50;5.20;;;;;;;5.57;84.28;100938.62;86063;1290;96518;-57
2022/09/23 00:45:11;;;;;;;8.20;5.90;;;;;;;5.59;84.41;100939.54;85926;1292;88012;-59
2022/09/23 00:47:30;;;;;;;8.50;5.20;;;;;;;5.56;84.38;100935.55;86041;1291;95570;-58
2022/09/23 00:49:39;;;;;;;8.90;5.20;;;;;;;5.54;84.47;100935.36;85960;1291;79868;-57
2022/09/23 00:51:59;;;;;;;10.20;5.20;;;;;;;5.53;84.52;100932.00;86054;1290;80119;-57
2022/09/23 00:54:13;;;;;;;7.00;5.00;;;;;;;5.57;84.47;100933.45;86020;1290;98808;-57
2022/09/23 00:56:25;;;;;;;7.00;5.10;;;;;;;5.59;84.65;100932.21;85884;1285;88720;-57
2022/09/23 00:58:38;;;;;;;7.50;5.50;;;;;;;5.60;84.67;100932.80;86034;1282;94066;-56
2022/09/23 01:00:49;;;;;;;8.60;5.50;;;;;;;5.64;84.87;100934.91;85877;1286;82446;-58
2022/09/23 01:02:59;;;;;;;7.30;5.40;;;;;;;5.70;84.66;100931.30;86073;1297;81798;-55
2022/09/23 01:05:12;;;;;;;8.50;5.70;;;;;;;5.75;84.99;100933.50;86054;1297;98030;-56
2022/09/23 01:07:21;;;;;;;8.00;5.30;;;;;;;5.81;85.01;100932.08;86033;1297;87042;-56
2022/09/23 01:09:36;;;;;;;7.40;5.10;;;;;;;5.86;85.24;100928.86;85988;1297;94410;-57
2022/09/23 01:11:58;;;;;;;6.10;5.40;;;;;;;5.95;85.27;100932.29;86077;1282;81510;-57
2022/09/23 01:14:30;;;;;;;6.70;5.70;;;;;;;6.01;85.36;100927.80;86010;1299;81624;-55
2022/09/23 01:16:52;;;;;;;7.10;5.40;;;;;;;6.08;85.57;100928.73;86040;1291;97744;-55
2022/09/23 01:19:14;;;;;;;7.20;5.10;;;;;;;6.15;85.39;100925.88;86059;1279;87718;-56
2022/09/23 01:21:46;;;;;;;9.10;5.80;;;;;;;6.24;85.61;100925.04;85996;1291;94264;-56
2022/09/23 01:24:43;;;;;;;7.00;5.90;;;;;;;6.32;85.72;100925.52;85969;1291;82341;-57
2022/09/23 01:27:07;;;;;;;6.40;5.70;;;;;;;6.40;85.76;100925.42;86042;1282;82808;-58
2022/09/23 01:29:53;;;;;;;6.90;5.80;;;;;;;6.46;85.83;100925.52;86077;1285;99302;-56
2022/09/23 01:32:15;;;;;;;8.80;5.70;;;;;;;6.51;85.96;100922.36;86001;1284;88326;-55
2022/09/23 01:34:36;;;;;;;6.80;5.80;;;;;;;6.53;86.02;100923.06;85978;1292;93470;-55
2022/09/23 01:36:53;;;;;;;8.30;6.10;;;;;;;6.57;86.17;100920.30;85980;1282;80184;-56
2022/09/23 01:39:11;;;;;;;9.10;6.40;;;;;;;6.66;86.24;100922.16;86063;1281;82573;-56
2022/09/23 01:41:42;;;;;;;7.70;5.70;;;;;;;6.73;86.28;100922.07;86024;1298;97646;-57
2022/09/23 01:43:59;;;;;;;7.90;6.40;;;;;;;6.80;86.23;100921.60;86105;1292;88890;-56
2022/09/23 01:46:28;;;;;;;8.80;6.00;;;;;;;6.82;86.37;100921.02;86019;1291;94212;-57
2022/09/23 01:48:46;;;;;;;8.30;6.20;;;;;;;6.85;86.27;100917.75;86060;1298;80519;-58
2022/09/23 01:51:03;;;;;;;7.50;6.20;;;;;;;6.88;86.23;100920.23;86099;1285;81538;-60
2022/09/23 01:53:24;;;;;;;10.30;7.00;;;;;;;6.85;86.09;100920.88;86071;1298;99071;-57
2022/09/23 01:55:38;;;;;;;8.30;6.50;;;;;;;6.82;86.10;100919.43;86088;1297;87764;-57
2022/09/23 01:57:54;;;;;;;8.70;6.50;;;;;;;6.77;85.99;100919.02;86054;1282;93779;-58
2022/09/23 02:00:14;;;;;;;8.70;6.40;;;;;;;6.67;85.80;100916.83;86069;1282;82436;-58
2022/09/23 02:02:32;;;;;;;9.00;6.40;;;;;;;6.59;85.69;100916.20;85958;1298;84244;-59
2022/09/23 02:08:07;;;;;;;8.10;6.70;;;;;;;6.38;85.54;100915.98;85657;1297;451321;-55
2022/09/23 02:10:23;;;;;;;8.30;5.90;;;;;;;6.34;85.34;100912.45;85851;1295;94066;-58
2022/09/23 02:12:46;;;;;;;9.40;6.20;;;;;;;6.29;85.34;100913.84;85853;1287;79740;-56
2022/09/23 02:15:03;;;;;;;9.30;6.20;;;;;;;6.23;85.20;100917.26;85912;1296;82589;-57
2022/09/23 02:17:24;;;;;;;7.60;6.30;;;;;;;6.14;85.27;100920.66;85849;1291;97553;-58
2022/09/23 02:19:40;;;;;;;7.70;6.50;;;;;;;6.06;85.23;100918.27;85879;1294;88937;-54
2022/09/23 02:22:01;;;;;;;7.60;6.00;;;;;;;6.01;85.10;100917.66;85833;1280;95086;-55
2022/09/23 02:24:15;;;;;;;7.70;6.50;;;;;;;5.96;85.14;100916.89;85822;1301;79786;-55
2022/09/23 02:26:28;;;;;;;8.30;7.00;;;;;;;5.90;85.18;100916.52;85849;1288;82884;-56
2022/09/23 02:28:45;;;;;;;8.40;6.80;;;;;;;5.84;85.22;100919.25;85822;1287;98083;-57
2022/09/23 02:31:06;;;;;;;7.60;6.80;;;;;;;5.80;85.38;100917.12;85833;1296;87014;-55
2022/09/23 02:33:21;;;;;;;9.70;7.00;;;;;;;5.77;85.45;100915.64;85827;1297;95271;-55
2022/09/23 02:35:35;;;;;;;7.80;6.20;;;;;;;5.75;85.41;100912.20;85813;1287;82235;-49
2022/09/23 02:37:51;;;;;;;10.00;6.90;;;;;;;5.73;85.27;100912.63;85823;1300;81376;-57
2022/09/23 02:40:12;;;;;;;8.30;6.90;;;;;;;5.71;85.48;100912.60;85837;1295;96623;-56
2022/09/23 02:42:26;;;;;;;8.50;6.30;;;;;;;5.69;85.44;100913.54;85858;1297;86933;-58
2022/09/23 02:44:36;;;;;;;9.40;6.60;;;;;;;5.67;85.46;100919.27;85841;1286;94568;-53
2022/09/23 02:46:49;;;;;;;7.80;6.00;;;;;;;5.66;85.56;100920.64;85863;1294;79077;-55
2022/09/23 02:49:01;;;;;;;8.70;6.90;;;;;;;5.65;85.62;100920.20;85809;1288;82552;-56
2022/09/23 02:51:12;;;;;;;8.90;6.30;;;;;;;5.64;85.51;100920.98;85828;1297;99418;-58
2022/09/23 02:53:22;;;;;;;9.00;6.50;;;;;;;5.64;85.64;100917.23;85820;1297;89225;-57
2022/09/23 02:55:32;;;;;;;8.80;6.70;;;;;;;5.67;85.61;100916.46;85827;1299;94678;-56
2022/09/23 02:57:44;;;;;;;9.00;6.90;;;;;;;5.70;85.74;100916.98;85807;1294;80619;-58
2022/09/23 02:59:53;;;;;;;10.50;6.50;;;;;;;5.71;85.95;100919.73;85831;1297;81872;-57
2022/09/23 03:02:25;;;;;;;8.50;6.40;;;;;;;5.76;85.98;100920.20;85822;1295;98976;-58
2022/09/23 03:04:46;;;;;;;8.60;6.20;;;;;;;5.78;85.92;100918.56;85823;1300;89075;-57
2022/09/23 03:07:05;;;;;;;8.00;6.60;;;;;;;5.80;86.05;100919.23;85802;1296;95176;-58
2022/09/23 03:09:23;;;;;;;8.80;7.00;;;;;;;5.79;86.12;100919.36;85855;1299;82306;-59
2022/09/23 03:11:34;;;;;;;8.40;6.30;;;;;;;5.78;86.21;100918.90;85848;1297;82299;-56
2022/09/23 03:14:06;;;;;;;10.70;6.20;;;;;;;5.76;86.21;100923.91;85827;1294;98650;-58
2022/09/23 03:16:26;;;;;;;7.60;6.00;;;;;;;5.77;86.06;100924.69;85830;1288;87687;-56
2022/09/23 03:18:40;;;;;;;9.60;6.60;;;;;;;5.80;86.11;100925.15;85767;1300;95850;-58
2022/09/23 03:20:51;;;;;;;;;;;;;;;5.77;86.06;100922.88;85827;1288;82574;-58
2022/09/23 03:23:06;;;;;;;9.90;6.90;;;;;;;5.72;86.04;100920.95;85852;1297;79888;-57
2022/09/23 03:25:34;;;;;;;7.00;6.30;;;;;;;5.67;86.15;100920.85;85790;1285;98014;-55
2022/09/23 03:27:44;;;;;;;8.50;6.70;;;;;;;5.66;86.01;100918.83;85857;1297;86542;-54
2022/09/23 03:29:55;;;;;;;8.60;6.00;;;;;;;5.64;85.93;100916.89;85830;1294;94334;-53
2022/09/23 03:32:07;;;;;;;8.80;6.50;;;;;;;5.62;85.78;100913.81;85819;1301;82047;-58
2022/09/23 03:34:19;;;;;;;8.50;7.10;;;;;;;5.57;85.56;100915.94;85815;1297;82458;-57
2022/09/23 03:36:52;;;;;;;9.60;6.30;;;;;;;5.51;85.83;100918.16;85839;1291;96364;-55
2022/09/23 03:39:07;;;;;;;9.10;6.00;;;;;;;5.45;85.84;100918.36;85841;1302;89327;-55
2022/09/23 03:41:22;;;;;;;8.10;6.40;;;;;;;5.40;85.69;100913.98;85813;1296;94135;-55
2022/09/23 03:43:32;;;;;;;8.20;6.40;;;;;;;5.32;85.76;100912.75;85764;1296;79768;-51
2022/09/23 03:45:41;;;;;;;7.80;6.40;;;;;;;5.28;85.69;100909.92;85828;1295;83210;-54
2022/09/23 03:47:50;;;;;;;9.20;6.80;;;;;;;5.24;85.63;100907.92;85811;1281;97550;-56
2022/09/23 03:50:01;;;;;;;8.10;6.30;;;;;;;5.21;85.74;100906.44;85843;1281;89207;-55
2022/09/23 03:52:09;;;;;;;7.80;6.70;;;;;;;5.14;85.71;100902.80;85830;1281;95186;-51
2022/09/23 03:54:19;;;;;;;9.10;7.20;;;;;;;5.06;85.76;100900.20;85804;1287;80826;-57
2022/09/23 03:56:28;;;;;;;8.80;7.10;;;;;;;5.01;85.66;100905.37;85804;1286;81135;-58
2022/09/23 03:58:39;;;;;;;8.10;6.30;;;;;;;4.95;85.80;100903.52;85834;1296;99765;-59
2022/09/23 04:00:49;;;;;;;11.20;7.40;;;;;;;4.89;85.83;100903.72;85776;1288;89472;-49
2022/09/23 04:02:58;;;;;;;9.50;7.20;;;;;;;4.87;85.91;100905.78;85807;1288;93729;-57
2022/09/23 04:05:09;;;;;;;9.80;6.80;;;;;;;4.86;85.82;100905.48;85790;1288;82496;-57
2022/09/23 04:07:18;;;;;;;9.60;6.90;;;;;;;4.83;85.81;100906.17;85807;1296;81611;-57
2022/09/23 04:09:28;;;;;;;10.00;7.20;;;;;;;4.77;85.76;100915.77;85815;1297;96892;-58
2022/09/23 04:11:37;;;;;;;8.80;7.10;;;;;;;4.71;85.85;100911.68;85878;1297;87976;-56
2022/09/23 04:13:46;;;;;;;9.60;6.90;;;;;;;4.68;85.90;100912.48;85833;1288;94814;-50
2022/09/23 04:15:55;;;;;;;8.00;6.50;;;;;;;4.66;85.87;100911.59;85853;1299;80484;-52
2022/09/23 04:18:03;;;;;;;10.10;6.70;;;;;;;4.65;85.91;100912.64;85852;1288;82671;-56
2022/09/23 04:20:12;;;;;;;9.40;6.90;;;;;;;4.64;85.84;100914.46;85822;1284;98975;-56
2022/09/23 04:22:21;;;;;;;8.80;6.90;;;;;;;4.65;85.91;100915.61;85853;1297;89280;-55
2022/09/23 04:24:32;;;;;;;10.40;6.90;;;;;;;4.64;85.98;100913.92;85688;1296;97084;-56
2022/09/23 04:26:42;;;;;;;8.20;6.30;;;;;;;4.62;85.86;100913.16;85793;1297;82708;-57
2022/09/23 04:28:53;;;;;;;8.60;7.10;;;;;;;4.61;85.96;100915.81;85821;1300;83399;-57
2022/09/23 04:31:06;;;;;;;10.00;6.50;;;;;;;4.59;85.90;100915.48;85839;1302;96857;-56
2022/09/23 04:33:16;;;;;;;11.40;7.70;;;;;;;4.56;86.00;100916.86;85813;1297;89700;-51
2022/09/23 04:35:26;;;;;;;7.80;6.20;;;;;;;4.55;85.81;100917.13;85834;1300;94250;-56
2022/09/23 04:37:35;;;;;;;8.10;6.20;;;;;;;4.56;85.90;100918.05;85812;1300;82474;-58
2022/09/23 04:39:44;;;;;;;9.00;6.00;;;;;;;4.56;85.97;100921.95;85821;1288;83863;-57
2022/09/23 04:41:53;;;;;;;7.60;5.80;;;;;;;4.58;86.02;100917.88;85835;1283;96795;-55
2022/09/23 04:44:03;;;;;;;7.40;6.00;;;;;;;4.60;86.11;100918.23;85825;1288;88376;-56
2022/09/23 04:46:15;;;;;;;8.40;6.30;;;;;;;4.67;86.13;100920.43;85803;1302;95262;-56
2022/09/23 04:48:24;;;;;;;8.90;6.50;;;;;;;4.74;86.32;100913.68;85759;1288;84101;-51
2022/09/23 04:50:34;;;;;;;8.80;6.60;;;;;;;4.83;86.54;100910.04;85839;1296;81810;-56
2022/09/23 04:52:43;;;;;;;10.80;8.10;;;;;;;4.94;86.57;100909.86;85811;1284;98641;-58
2022/09/23 04:54:51;;;;;;;10.20;7.30;;;;;;;5.07;86.63;100908.66;85820;1294;88676;-56
2022/09/23 04:57:00;;;;;;;14.50;8.00;;;;;;;5.19;86.92;100908.45;85822;1294;95720;-55
2022/09/23 04:59:09;;;;;;;13.00;8.90;;;;;;;5.27;87.03;100905.52;85708;1288;84222;-54
2022/09/23 05:01:23;;;;;;;11.20;7.40;;;;;;;5.35;87.09;100915.34;85887;1300;81333;-49
2022/09/23 05:03:34;;;;;;;11.30;7.90;;;;;;;5.43;87.30;100913.85;85810;1281;98763;-56
2022/09/23 05:05:43;;;;;;;16.50;7.90;;;;;;;5.55;87.26;100913.96;85809;1281;89006;-58
2022/09/23 05:07:54;;;;;;;13.20;8.00;;;;;;;5.69;87.41;100912.50;85822;1285;93564;-56
2022/09/23 05:10:03;;;;;;;10.40;7.70;;;;;;;5.75;87.50;100914.20;85774;1283;82166;-50
2022/09/23 05:12:12;;;;;;;9.50;7.00;;;;;;;5.89;87.64;100911.42;85836;1300;82818;-58
2022/09/23 05:14:23;;;;;;;10.10;7.40;;;;;;;6.01;87.61;100911.55;85775;1294;97062;-56
2022/09/23 05:16:34;;;;;;;10.40;7.80;;;;;;;6.13;87.54;100904.63;85783;1295;86974;-54
2022/09/23 05:18:44;;;;;;;10.30;8.00;;;;;;;6.28;87.61;100902.95;85813;1296;95733;-54
2022/09/23 05:20:57;;;;;;;10.30;7.00;;;;;;;6.45;87.77;100903.10;85814;1297;82315;-53
2022/09/23 05:23:06;;;;;;;10.10;7.50;;;;;;;6.61;87.95;100902.23;85839;1297;80487;-56
2022/09/23 05:25:15;;;;;;;10.00;7.90;;;;;;;6.77;87.84;100903.51;85852;1300;98988;-57
2022/09/23 05:27:23;;;;;;;11.50;8.20;;;;;;;6.91;87.83;100903.67;85832;1302;88445;-57
2022/09/23 05:29:32;;;;;;;12.10;8.10;;;;;;;7.07;87.86;100904.02;85836;1288;93773;-58
2022/09/23 05:31:42;;;;;;;11.70;8.50;;;;;;;7.25;87.89;100908.45;85831;1297;82213;-56
2022/09/23 05:33:53;;;;;;;10.50;8.00;;;;;;;7.42;87.56;100905.99;85830;1299;81992;-51
2022/09/23 05:36:03;;;;;;;15.00;9.40;;;;;;;7.44;87.33;100907.36;85804;1300;98428;-56
2022/09/23 05:38:11;;;;;;;11.30;8.60;;;;;;;7.47;87.23;100909.36;85861;1300;89132;-56
2022/09/23 05:40:20;;;;;;;13.50;9.60;;;;;;;7.67;87.13;100909.05;85812;1301;94688;-58
2022/09/23 05:42:28;;;;;;;12.20;9.70;;;;;;;7.87;87.12;100909.29;85825;1299;79534;-57
2022/09/23 05:44:38;;;;;;;14.90;10.30;;;;;;;7.81;86.81;100913.75;85872;1295;83188;-58
2022/09/23 05:46:47;;;;;;;13.00;10.10;;;;;;;7.87;87.04;100912.88;85833;1300;99663;-55
2022/09/23 05:49:00;;;;;;;14.20;9.50;;;;;;;8.22;87.21;100913.54;85866;1297;86062;-55
2022/09/23 05:51:13;;;;;;;12.50;9.60;;;;;;;8.26;86.95;100918.23;85840;1294;94413;-56
2022/09/23 05:53:22;;;;;;;11.00;8.30;;;;;;;8.21;86.67;100916.27;85848;1302;81095;-54
2022/09/23 05:55:31;;;;;;;10.20;8.20;;;;;;;8.23;86.63;100919.33;85808;1302;82614;-56
2022/09/23 05:57:42;;;;;;;10.20;8.40;;;;;;;8.24;86.77;100919.55;85851;1301;99116;-57
2022/09/23 05:59:51;;;;;;;9.90;7.20;;;;;;;8.38;86.73;100922.12;85816;1302;88003;-55
2022/09/23 06:02:01;;;;;;;10.20;7.70;;;;;;;8.49;86.80;100922.09;85819;1299;95111;-54
2022/09/23 06:04:14;;;;;;;9.10;7.30;;;;;;;8.53;86.61;100920.11;85847;1295;81672;-55
2022/09/23 06:06:29;;;;;;;9.20;8.10;;;;;;;8.57;86.79;100919.69;85838;1299;83418;-56
2022/09/23 06:08:37;;;;;;;9.60;7.50;;;;;;;8.65;86.50;100916.08;85842;1301;97439;-55
2022/09/23 06:10:48;;;;;;;8.60;7.30;;;;;;;8.77;86.87;100922.17;85821;1295;88368;-52
2022/09/23 06:12:56;;;;;;;8.50;6.80;;;;;;;9.03;86.59;100918.10;85831;1287;95344;-57
2022/09/23 06:15:07;;;;;;;10.10;7.70;;;;;;;9.29;86.62;100920.95;85819;1300;81142;-57
2022/09/23 06:17:15;;;;;;;10.00;8.40;;;;;;;9.60;86.94;100921.04;85877;1296;83484;-57
2022/09/23 06:19:24;;;;;;;8.80;7.60;;;;;;;9.98;86.69;100918.58;85838;1303;98978;-54
2022/09/23 06:21:34;;;;;;;10.40;7.60;;;;;;;10.25;86.52;100918.18;85844;1294;87989;-56
2022/09/23 06:23:44;;;;;;;8.30;7.50;;;;;;;10.45;86.28;100917.67;85839;1302;95035;-56
2022/09/23 06:25:52;;;;;;;10.00;9.00;;;;;;;10.50;86.17;100915.45;85862;1299;81011;-55
2022/09/23 06:28:03;;;;;;;13.00;9.30;;;;;;;10.57;85.84;100916.96;85837;1299;82749;-56
2022/09/23 06:30:16;;;;;;;10.60;9.40;;;;;;;10.62;85.61;100919.40;85860;1300;99197;-55
2022/09/23 06:32:24;;;;;;;12.00;10.30;;;;;;;10.61;85.26;100919.58;85879;1296;89531;-56
2022/09/23 06:34:33;;;;;;;13.60;10.90;;;;;;;10.74;85.20;100919.44;85833;1293;95497;-51
2022/09/23 06:36:43;;;;;;;14.50;11.50;;;;;;;10.93;84.36;100916.84;85849;1295;79520;-56
2022/09/23 06:38:52;;;;;;;14.20;11.90;;;;;;;11.17;83.17;100913.60;85855;1300;82170;-56
2022/09/23 06:41:03;;;;;;;14.80;12.10;;;;;;;11.30;82.73;100915.54;85803;1302;99447;-60
2022/09/23 06:43:12;;;;;;;14.20;11.10;;;;;;;11.29;82.58;100913.05;85833;1300;89903;-62
2022/09/23 06:45:24;;;;;;;15.00;12.20;;;;;;;11.31;82.70;100909.47;85851;1297;94896;-57
2022/09/23 06:47:37;;;;;;;12.50;10.80;;;;;;;11.41;82.86;100915.20;85832;1300;81109;-56
2022/09/23 06:49:53;;;;;;;12.40;10.30;;;;;;;11.42;82.76;100910.56;85814;1295;81599;-58
2022/09/23 06:52:07;;;;;;;12.00;10.50;;;;;;;11.61;82.71;100912.23;85869;1299;96664;-59
2022/09/23 06:54:16;;;;;;;12.50;9.80;;;;;;;11.82;82.24;100912.69;85842;1296;87888;-57
2022/09/23 06:56:30;;;;;;;13.10;10.90;;;;;;;11.89;82.16;100914.63;85705;1302;94358;-59
2022/09/23 06:58:39;;;;;;;12.20;10.50;;;;;;;12.04;81.86;100914.34;85815;1302;80131;-59
2022/09/23 07:00:54;;;;;;;11.40;9.50;;;;;;;12.18;81.77;100917.50;85790;1296;81361;-55
2022/09/23 07:03:06;;;;;;;11.10;9.20;;;;;;;12.24;82.01;100915.98;85841;1296;99501;-54
2022/09/23 07:05:21;;;;;;;10.90;9.60;;;;;;;12.42;81.67;100914.08;85832;1302;88402;-60
2022/09/23 07:07:35;;;;;;;10.60;9.50;;;;;;;12.49;81.30;100917.40;85826;1297;95186;-60
2022/09/23 07:09:50;;;;;;;11.00;9.00;;;;;;;12.42;80.77;100914.38;85815;1297;80988;-59
2022/09/23 07:12:02;;;;;;;13.60;9.30;;;;;;;12.35;80.31;100920.11;85848;1297;82706;-60
2022/09/23 07:14:11;;;;;;;10.80;9.70;;;;;;;12.48;79.69;100919.54;85784;1299;97340;-59
2022/09/23 07:16:22;;;;;;;12.40;9.60;;;;;;;12.72;79.49;100919.66;85832;1299;88222;-58
2022/09/23 07:18:37;;;;;;;11.00;8.90;;;;;;;12.81;79.34;100925.20;85816;1299;94525;-60
2022/09/23 07:20:50;;;;;;;11.20;9.70;;;;;;;12.77;78.85;100921.32;85834;1300;80055;-57
2022/09/23 07:22:58;;;;;;;11.20;9.50;;;;;;;12.70;78.57;100922.95;85845;1302;82974;-55
2022/09/23 07:25:10;;;;;;;13.00;9.60;;;;;;;12.65;78.70;100920.51;85813;1297;98339;-58
2022/09/23 07:27:23;;;;;;;11.70;9.60;;;;;;;12.66;78.95;100919.34;85832;1300;88257;-56
2022/09/23 07:29:32;;;;;;;10.50;9.40;;;;;;;12.64;79.02;100920.70;85843;1300;94552;-59
2022/09/23 07:31:41;;;;;;;9.60;8.60;;;;;;;12.72;79.08;100919.05;85886;1296;82374;-60
2022/09/23 07:34:00;;;;;;;11.50;9.10;;;;;;;13.32;79.55;100913.43;85822;1296;83214;-60
2022/09/23 07:36:13;;;;;;;10.10;8.90;;;;;;;14.75;78.52;100909.00;85865;1300;96692;-60
2022/09/23 07:38:28;;;;;;;10.40;8.70;;;;;;;16.03;76.75;100909.42;85849;1295;88787;-59
2022/09/23 07:40:39;;;;;;;10.40;9.40;;;;;;;16.95;75.58;100904.19;85836;1295;94950;-61
2022/09/23 07:42:48;;;;;;;9.50;8.70;;;;;;;18.06;75.11;100904.08;85840;1297;79828;-60
2022/09/23 07:44:57;;;;;;;9.80;8.80;;;;;;;19.18;73.70;100903.12;85842;1297;82980;-58
2022/09/23 07:47:08;;;;;;;8.90;8.00;;;;;;;20.08;72.69;100903.75;85824;1297;98388;-57
2022/09/23 07:49:17;;;;;;;9.60;8.60;;;;;;;20.89;70.57;100902.57;85818;1294;88367;-58
2022/09/23 07:51:31;;;;;;;13.30;9.00;;;;;;;21.52;69.70;100891.89;85824;1300;94874;-57
2022/09/23 07:53:40;;;;;;;8.90;8.00;;;;;;;22.12;68.55;100898.11;85851;1299;78809;-56
2022/09/23 07:55:55;;;;;;;8.50;7.10;;;;;;;22.78;67.61;100898.67;85823;1299;82279;-59
2022/09/23 07:58:05;;;;;;;7.70;7.00;;;;;;;23.23;66.34;100897.48;85834;1287;99595;-58
2022/09/23 08:00:16;;;;;;;8.30;7.60;;;;;;;23.20;65.35;100897.89;85860;1296;86657;-58
2022/09/23 08:02:24;;;;;;;9.40;8.30;;;;;;;23.69;64.19;100895.88;85737;1296;96154;-57
2022/09/23 08:04:34;;;;;;;10.10;9.20;;;;;;;24.01;63.11;100894.81;85827;1303;80883;-50
2022/09/23 08:06:48;;;;;;;9.40;8.40;;;;;;;24.41;61.04;100893.92;85858;1297;82085;-48
2022/09/23 08:08:59;;;;;;;9.70;8.80;;;;;;;24.67;60.19;100891.90;85815;1300;99350;-58
2022/09/23 08:11:10;;;;;;;9.10;8.30;;;;;;;24.96;60.02;100887.33;85877;1297;89604;-55
2022/09/23 08:13:19;;;;;;;8.20;7.50;;;;;;;25.05;58.93;100881.04;85722;1304;95461;-51
2022/09/23 08:15:28;;;;;;;12.50;7.90;;;;;;;24.95;58.11;100883.66;85830;1296;80432;-54
2022/09/23 08:17:37;;;;;;;7.00;6.30;;;;;;;25.03;57.73;100881.59;85831;1301;82540;-58
2022/09/23 08:19:47;;;;;;;6.30;5.60;;;;;;;25.35;57.24;100882.08;85843;1300;98859;-58
2022/09/23 08:21:56;;;;;;;7.30;6.70;;;;;;;25.54;55.47;100876.53;85830;1296;88656;-58
2022/09/23 08:24:09;;;;;;;7.10;6.50;;;;;;;25.65;55.25;100875.71;85841;1300;95327;-61
2022/09/23 08:26:18;;;;;;;7.30;6.70;;;;;;;25.11;54.76;100880.88;85809;1299;79573;-53
2022/09/23 08:28:27;;;;;;;6.90;6.20;;;;;;;24.59;53.78;100875.67;85856;1300;81639;-62
2022/09/23 08:30:39;;;;;;;5.90;5.40;;;;;;;24.45;53.83;100871.34;85829;1297;97213;-60
2022/09/23 08:32:52;;;;;;;5.60;5.10;;;;;;;24.46;54.45;100866.16;85842;1303;88667;-54
2022/09/23 08:35:00;;;;;;;6.20;5.30;;;;;;;24.82;53.79;100863.48;85850;1302;94799;-50
2022/09/23 08:37:12;;;;;;;5.30;4.80;;;;;;;25.12;53.56;100866.02;85824;1300;80390;-62
2022/09/23 08:39:22;;;;;;;4.80;4.10;;;;;;;24.81;52.81;100859.02;85859;1301;83402;-55
2022/09/23 08:41:45;;;;;;;4.50;2.60;;;;;;;24.81;53.06;100857.86;85832;1300;96886;-61
2022/09/23 08:43:58;;;;;;;2.50;2.30;;;;;;;25.28;52.31;100850.44;85846;1295;87468;-62
2022/09/23 08:46:11;;;;;;;3.60;2.20;;;;;;;25.35;51.96;100846.90;85822;1296;95643;-60
2022/09/23 08:48:23;;;;;;;;;;;;;;;25.12;51.01;100851.52;85698;1298;82360;-61
2022/09/23 08:50:41;;;;;;;2.90;2.20;;;;;;;24.50;50.62;100854.63;85823;1301;82391;-56
2022/09/23 08:52:57;;;;;;;2.60;2.40;;;;;;;23.22;50.61;100845.54;85848;1301;97352;-56
2022/09/23 08:55:13;;;;;;;2.40;2.20;;;;;;;22.50;50.88;100846.00;85848;1300;88518;-58
2022/09/23 08:57:28;;;;;;;;;;;;;;;22.40;51.25;100850.20;85901;1300;96082;-54
2022/09/23 08:59:43;;;;;;;2.30;1.70;;;;;;;21.93;50.98;100847.74;85839;1302;80390;-55
2022/09/23 09:01:57;;;;;;;2.20;1.70;;;;;;;22.19;51.21;100847.30;85701;1301;83098;-61
2022/09/23 09:04:18;;;;;;;2.20;1.40;;;;;;;21.88;51.02;100852.01;85848;1294;98123;-57
2022/09/23 09:06:34;;;;;;;2.30;1.50;;;;;;;21.24;50.96;100850.92;85840;1295;88676;-60
2022/09/23 09:08:48;;;;;;;1.70;1.50;;;;;;;20.47;51.11;100857.76;85820;1300;95025;-58
2022/09/23 09:10:57;;;;;;;1.40;1.10;;;;;;;19.93;51.17;100857.27;85809;1302;80443;-61
2022/09/23 09:13:22;;;;;;;1.70;1.30;;;;;;;19.81;52.21;100854.69;85836;1286;82641;-64
2022/09/23 09:15:42;;;;;;;2.10;1.30;;;;;;;20.64;53.22;100849.05;85821;1300;99258;-60
2022/09/23 09:18:21;;;;;;;2.10;1.10;;;;;;;21.69;53.02;100840.86;85842;1299;87500;-61
2022/09/23 09:21:07;;;;;;;1.30;1.20;;;;;;;22.49;52.35;100838.60;85820;1300;95184;-59
2022/09/23 09:23:29;;;;;;;2.10;0.90;;;;;;;22.75;50.22;100836.43;85858;1293;79077;-59
2022/09/23 09:25:51;;;;;;;1.70;1.00;;;;;;;21.92;49.75;100844.13;85869;1302;81527;-57
2022/09/23 09:28:12;;;;;;;1.30;0.80;;;;;;;21.60;50.08;100842.97;85713;1301;98776;-57
2022/09/23 09:30:24;;;;;;;1.20;0.90;;;;;;;21.95;50.01;100834.13;85849;1299;88796;-62
2022/09/23 09:32:45;;;;;;;1.40;1.00;;;;;;;22.19;49.33;100832.39;85802;1300;95375;-64
2022/09/23 09:35:00;;;;;;;1.10;0.90;;;;;;;22.54;49.57;100825.59;85855;1302;80252;-57
2022/09/23 09:37:16;;;;;;;2.60;0.90;;;;;;;22.68;49.41;100826.83;85725;1300;83144;-56
2022/09/23 09:39:25;;;;;;;2.80;1.40;;;;;;;21.82;48.55;100829.41;85806;1299;98025;-56
2022/09/23 09:41:34;;;;;;;1.10;0.80;;;;;;;20.64;48.23;100836.04;85884;1294;87532;-57
2022/09/23 09:43:56;;;;;;;2.40;0.90;;;;;;;19.91;48.35;100834.24;85845;1300;95097;-57
2022/09/23 09:46:25;;;;;;;1.10;0.90;;;;;;;19.70;49.46;100832.31;85867;1296;80961;-59
2022/09/23 09:48:52;;;;;;;1.30;1.00;;;;;;;19.79;50.02;100829.20;85826;1296;83497;-59
2022/09/23 09:51:20;;;;;;;1.50;1.00;;;;;;;19.89;50.34;100830.58;85819;1294;98510;-56
2022/09/23 09:53:34;;;;;;;1.50;1.00;;;;;;;19.55;50.20;100828.23;85859;1299;89376;-56
2022/09/23 09:55:44;;;;;;;1.40;0.80;;;;;;;19.05;49.88;100827.11;85825;1300;93799;-56
2022/09/23 09:58:00;;;;;;;1.20;1.00;;;;;;;18.57;50.05;100826.61;85861;1299;80130;-52
2022/09/23 10:00:42;;;;;;;1.30;1.00;;;;;;;18.30;49.94;100819.88;85866;1294;82869;-60
2022/09/23 10:02:57;;;;;;;2.20;1.10;;;;;;;18.08;50.31;100820.38;85651;1300;99157;-60
2022/09/23 10:05:27;;;;;;;2.50;1.10;;;;;;;17.76;50.68;100817.67;85865;1299;89084;-60
2022/09/23 10:07:37;;;;;;;2.10;1.00;;;;;;;17.71;51.03;100814.58;85612;1298;331393;-60
2022/09/23 10:09:52;;;;;;;1.70;0.90;;;;;;;17.59;51.17;100818.80;85809;1299;80935;-59
2022/09/23 10:12:17;;;;;;;1.30;0.90;;;;;;;17.36;51.17;100817.47;85839;1300;81725;-61
2022/09/23 10:14:25;;;;;;;1.20;0.90;;;;;;;17.04;51.38;100814.71;85865;1302;98730;-61
2022/09/23 10:16:36;;;;;;;1.40;1.10;;;;;;;17.21;51.84;100809.70;85850;1299;88089;-54
2022/09/23 10:18:55;;;;;;;1.40;1.10;;;;;;;17.49;52.14;100805.41;85812;1300;94026;-58
2022/09/23 10:21:13;;;;;;;2.40;1.20;;;;;;;17.70;51.78;100803.05;85854;1299;78751;-57
2022/09/23 10:23:28;;;;;;;1.60;1.20;;;;;;;17.54;51.35;100807.95;85860;1302;82989;-58
2022/09/23 10:25:40;;;;;;;1.60;1.10;;;;;;;17.08;51.58;100803.79;85825;1294;97356;-60
2022/09/23 10:27:50;;;;;;;1.40;1.20;;;;;;;16.81;51.67;100799.21;85845;1300;87864;-61
2022/09/23 10:30:03;;;;;;;1.30;1.00;;;;;;;16.55;52.18;100797.63;85849;1301;95433;-59